sensor_id;sensor_type;location;lat;lon;timestamp;temperature;humidity
84018;DHT22;74097;51.992;5.890;2023-11-22T00:01:12;16.30;65.30
84018;DHT22;74097;51.992;5.890;2023-11-22T00:03:38;16.30;65.20
84018;DHT22;74097;51.992;5.890;2023-11-22T00:06:04;16.30;65.20
84018;DHT22;74097;51.992;5.890;2023-11-22T00:08:31;16.30;65.20
84018;DHT22;74097;51.992;5.890;2023-11-22T00:10:57;16.30;65.20
84018;DHT22;74097;51.992;5.890;2023-11-22T00:13:22;16.20;65.10
84018;DHT22;74097;51.992;5.890;2023-11-22T00:15:48;16.20;65.10
84018;DHT22;74097;51.992;5.890;2023-11-22T00:18:14;16.30;65.10
84018;DHT22;74097;51.992;5.890;2023-11-22T00:20:40;16.30;65.10
84018;DHT22;74097;51.992;5.890;2023-11-22T00:23:05;16.20;65.10
84018;DHT22;74097;51.992;5.890;2023-11-22T00:25:32;16.20;65.10
84018;DHT22;74097;51.992;5.890;2023-11-22T00:27:58;16.20;65.00
84018;DHT22;74097;51.992;5.890;2023-11-22T00:30:24;16.20;65.00
84018;DHT22;74097;51.992;5.890;2023-11-22T00:32:51;16.20;65.00
84018;DHT22;74097;51.992;5.890;2023-11-22T00:35:16;16.20;65.00
84018;DHT22;74097;51.992;5.890;2023-11-22T00:37:42;16.20;64.90
84018;DHT22;74097;51.992;5.890;2023-11-22T00:40:08;16.20;65.00
84018;DHT22;74097;51.992;5.890;2023-11-22T00:42:36;16.20;64.90
84018;DHT22;74097;51.992;5.890;2023-11-22T00:45:01;16.20;64.90
84018;DHT22;74097;51.992;5.890;2023-11-22T00:47:27;16.10;65.00
84018;DHT22;74097;51.992;5.890;2023-11-22T00:49:53;16.10;65.00
84018;DHT22;74097;51.992;5.890;2023-11-22T00:52:19;16.10;65.00
84018;DHT22;74097;51.992;5.890;2023-11-22T00:54:45;16.10;65.00
84018;DHT22;74097;51.992;5.890;2023-11-22T00:57:10;16.10;64.90
84018;DHT22;74097;51.992;5.890;2023-11-22T00:59:37;16.20;64.90
84018;DHT22;74097;51.992;5.890;2023-11-22T01:02:03;16.10;64.90
84018;DHT22;74097;51.992;5.890;2023-11-22T01:04:29;16.10;64.90
84018;DHT22;74097;51.992;5.890;2023-11-22T01:06:54;16.10;64.90
84018;DHT22;74097;51.992;5.890;2023-11-22T01:09:20;16.10;64.90
84018;DHT22;74097;51.992;5.890;2023-11-22T01:11:46;16.10;64.90
84018;DHT22;74097;51.992;5.890;2023-11-22T01:14:11;16.10;64.90
84018;DHT22;74097;51.992;5.890;2023-11-22T01:16:38;16.10;64.90
84018;DHT22;74097;51.992;5.890;2023-11-22T01:19:04;16.10;64.90
84018;DHT22;74097;51.992;5.890;2023-11-22T01:21:30;16.10;64.90
84018;DHT22;74097;51.992;5.890;2023-11-22T01:23:55;16.10;64.90
84018;DHT22;74097;51.992;5.890;2023-11-22T01:26:21;16.10;64.90
84018;DHT22;74097;51.992;5.890;2023-11-22T01:28:47;16.10;64.90
84018;DHT22;74097;51.992;5.890;2023-11-22T01:31:13;16.10;64.90
84018;DHT22;74097;51.992;5.890;2023-11-22T01:33:40;16.10;64.90
84018;DHT22;74097;51.992;5.890;2023-11-22T01:36:06;16.10;64.90
84018;DHT22;74097;51.992;5.890;2023-11-22T01:38:32;16.10;64.90
84018;DHT22;74097;51.992;5.890;2023-11-22T01:40:58;16.10;64.90
84018;DHT22;74097;51.992;5.890;2023-11-22T01:43:26;16.10;64.80
84018;DHT22;74097;51.992;5.890;2023-11-22T01:45:53;16.10;64.90
84018;DHT22;74097;51.992;5.890;2023-11-22T01:48:19;16.10;64.90
84018;DHT22;74097;51.992;5.890;2023-11-22T01:50:46;16.10;64.90
84018;DHT22;74097;51.992;5.890;2023-11-22T01:53:13;16.10;64.90
84018;DHT22;74097;51.992;5.890;2023-11-22T01:55:40;16.10;64.90
84018;DHT22;74097;51.992;5.890;2023-11-22T01:58:06;16.00;64.80
84018;DHT22;74097;51.992;5.890;2023-11-22T02:00:35;16.00;64.80
84018;DHT22;74097;51.992;5.890;2023-11-22T02:03:02;16.10;64.80
84018;DHT22;74097;51.992;5.890;2023-11-22T02:05:27;16.00;64.80
84018;DHT22;74097;51.992;5.890;2023-11-22T02:07:55;16.00;64.80
84018;DHT22;74097;51.992;5.890;2023-11-22T02:10:21;16.00;64.80
84018;DHT22;74097;51.992;5.890;2023-11-22T02:12:47;16.00;64.80
84018;DHT22;74097;51.992;5.890;2023-11-22T02:15:12;16.00;64.80
84018;DHT22;74097;51.992;5.890;2023-11-22T02:17:38;16.00;64.80
84018;DHT22;74097;51.992;5.890;2023-11-22T02:20:05;16.00;64.80
84018;DHT22;74097;51.992;5.890;2023-11-22T02:22:31;16.00;64.80
84018;DHT22;74097;51.992;5.890;2023-11-22T02:24:58;16.00;64.80
84018;DHT22;74097;51.992;5.890;2023-11-22T02:27:24;16.00;64.80
84018;DHT22;74097;51.992;5.890;2023-11-22T02:29:50;16.00;64.80
84018;DHT22;74097;51.992;5.890;2023-11-22T02:32:16;15.90;64.80
84018;DHT22;74097;51.992;5.890;2023-11-22T02:34:41;15.90;64.90
84018;DHT22;74097;51.992;5.890;2023-11-22T02:37:07;15.90;64.80
84018;DHT22;74097;51.992;5.890;2023-11-22T02:39:41;15.90;64.80
84018;DHT22;74097;51.992;5.890;2023-11-22T02:42:11;16.00;64.80
84018;DHT22;74097;51.992;5.890;2023-11-22T02:44:36;15.90;64.90
84018;DHT22;74097;51.992;5.890;2023-11-22T02:47:02;15.90;64.80
84018;DHT22;74097;51.992;5.890;2023-11-22T02:49:28;15.90;64.90
84018;DHT22;74097;51.992;5.890;2023-11-22T02:51:54;15.90;64.80
84018;DHT22;74097;51.992;5.890;2023-11-22T02:54:20;15.90;64.80
84018;DHT22;74097;51.992;5.890;2023-11-22T02:56:45;15.90;64.80
84018;DHT22;74097;51.992;5.890;2023-11-22T02:59:12;15.80;64.80
84018;DHT22;74097;51.992;5.890;2023-11-22T03:01:38;15.80;64.80
84018;DHT22;74097;51.992;5.890;2023-11-22T03:04:04;15.80;64.90
84018;DHT22;74097;51.992;5.890;2023-11-22T03:06:30;15.90;64.80
84018;DHT22;74097;51.992;5.890;2023-11-22T03:08:55;15.80;64.80
84018;DHT22;74097;51.992;5.890;2023-11-22T03:11:21;15.80;64.90
84018;DHT22;74097;51.992;5.890;2023-11-22T03:13:47;15.80;64.80
84018;DHT22;74097;51.992;5.890;2023-11-22T03:16:14;15.80;64.90
84018;DHT22;74097;51.992;5.890;2023-11-22T03:18:41;15.80;64.80
84018;DHT22;74097;51.992;5.890;2023-11-22T03:21:06;15.80;64.90
84018;DHT22;74097;51.992;5.890;2023-11-22T03:23:33;15.80;64.90
84018;DHT22;74097;51.992;5.890;2023-11-22T03:25:59;15.80;64.80
84018;DHT22;74097;51.992;5.890;2023-11-22T03:28:24;15.80;64.80
84018;DHT22;74097;51.992;5.890;2023-11-22T03:30:50;15.80;64.90
84018;DHT22;74097;51.992;5.890;2023-11-22T03:33:17;15.80;64.90
84018;DHT22;74097;51.992;5.890;2023-11-22T03:35:43;15.70;64.80
84018;DHT22;74097;51.992;5.890;2023-11-22T03:38:08;15.70;64.80
84018;DHT22;74097;51.992;5.890;2023-11-22T03:40:34;15.80;64.80
84018;DHT22;74097;51.992;5.890;2023-11-22T03:43:01;15.70;64.80
84018;DHT22;74097;51.992;5.890;2023-11-22T03:45:27;15.70;64.70
84018;DHT22;74097;51.992;5.890;2023-11-22T03:47:53;15.70;64.70
84018;DHT22;74097;51.992;5.890;2023-11-22T03:50:20;15.70;64.70
84018;DHT22;74097;51.992;5.890;2023-11-22T03:52:48;15.70;64.70
84018;DHT22;74097;51.992;5.890;2023-11-22T03:55:14;15.70;64.70
84018;DHT22;74097;51.992;5.890;2023-11-22T03:57:40;15.60;64.60
84018;DHT22;74097;51.992;5.890;2023-11-22T04:00:06;15.60;64.60
84018;DHT22;74097;51.992;5.890;2023-11-22T04:02:38;15.60;64.60
84018;DHT22;74097;51.992;5.890;2023-11-22T04:05:04;15.60;64.70
84018;DHT22;74097;51.992;5.890;2023-11-22T04:07:31;15.60;64.60
84018;DHT22;74097;51.992;5.890;2023-11-22T04:09:57;15.60;64.60
84018;DHT22;74097;51.992;5.890;2023-11-22T04:12:23;15.60;64.60
84018;DHT22;74097;51.992;5.890;2023-11-22T04:14:48;15.60;64.70
84018;DHT22;74097;51.992;5.890;2023-11-22T04:17:14;15.60;64.70
84018;DHT22;74097;51.992;5.890;2023-11-22T04:19:40;15.60;64.60
84018;DHT22;74097;51.992;5.890;2023-11-22T04:22:05;15.60;64.60
84018;DHT22;74097;51.992;5.890;2023-11-22T04:24:32;15.60;64.60
84018;DHT22;74097;51.992;5.890;2023-11-22T04:26:58;15.60;64.60
84018;DHT22;74097;51.992;5.890;2023-11-22T04:29:24;15.50;64.60
84018;DHT22;74097;51.992;5.890;2023-11-22T04:31:49;15.60;64.60
84018;DHT22;74097;51.992;5.890;2023-11-22T04:34:15;15.60;64.60
84018;DHT22;74097;51.992;5.890;2023-11-22T04:36:41;15.50;64.60
84018;DHT22;74097;51.992;5.890;2023-11-22T04:39:06;15.60;64.50
84018;DHT22;74097;51.992;5.890;2023-11-22T04:41:34;15.50;64.50
84018;DHT22;74097;51.992;5.890;2023-11-22T04:43:59;15.50;64.50
84018;DHT22;74097;51.992;5.890;2023-11-22T04:46:25;15.50;64.50
84018;DHT22;74097;51.992;5.890;2023-11-22T04:48:51;15.50;64.50
84018;DHT22;74097;51.992;5.890;2023-11-22T04:51:17;15.50;64.50
84018;DHT22;74097;51.992;5.890;2023-11-22T04:53:43;15.50;64.40
84018;DHT22;74097;51.992;5.890;2023-11-22T04:56:08;15.50;64.40
84018;DHT22;74097;51.992;5.890;2023-11-22T04:58:35;15.50;64.30
84018;DHT22;74097;51.992;5.890;2023-11-22T05:01:01;15.50;64.30
84018;DHT22;74097;51.992;5.890;2023-11-22T05:03:27;15.50;64.30
84018;DHT22;74097;51.992;5.890;2023-11-22T05:05:52;15.50;64.30
84018;DHT22;74097;51.992;5.890;2023-11-22T05:08:18;15.50;64.30
84018;DHT22;74097;51.992;5.890;2023-11-22T05:10:44;15.50;64.30
84018;DHT22;74097;51.992;5.890;2023-11-22T05:13:10;15.50;64.30
84018;DHT22;74097;51.992;5.890;2023-11-22T05:15:37;15.50;64.30
84018;DHT22;74097;51.992;5.890;2023-11-22T05:18:03;15.40;64.20
84018;DHT22;74097;51.992;5.890;2023-11-22T05:20:28;15.40;64.20
84018;DHT22;74097;51.992;5.890;2023-11-22T05:22:54;15.50;64.20
84018;DHT22;74097;51.992;5.890;2023-11-22T05:25:20;15.40;64.20
84018;DHT22;74097;51.992;5.890;2023-11-22T05:27:45;15.40;64.20
84018;DHT22;74097;51.992;5.890;2023-11-22T05:30:11;15.40;64.20
84018;DHT22;74097;51.992;5.890;2023-11-22T05:32:39;15.30;64.30
84018;DHT22;74097;51.992;5.890;2023-11-22T05:35:05;15.30;64.30
84018;DHT22;74097;51.992;5.890;2023-11-22T05:37:31;15.40;64.20
84018;DHT22;74097;51.992;5.890;2023-11-22T05:39:56;15.30;64.30
84018;DHT22;74097;51.992;5.890;2023-11-22T05:42:22;15.30;64.30
84018;DHT22;74097;51.992;5.890;2023-11-22T05:44:48;15.30;64.30
84018;DHT22;74097;51.992;5.890;2023-11-22T05:47:13;15.30;64.30
84018;DHT22;74097;51.992;5.890;2023-11-22T05:49:40;15.30;64.30
84018;DHT22;74097;51.992;5.890;2023-11-22T05:52:06;15.40;64.30
84018;DHT22;74097;51.992;5.890;2023-11-22T05:54:32;15.40;64.20
84018;DHT22;74097;51.992;5.890;2023-11-22T05:56:57;15.50;64.20
84018;DHT22;74097;51.992;5.890;2023-11-22T05:59:23;15.50;64.10
84018;DHT22;74097;51.992;5.890;2023-11-22T06:01:49;15.50;64.10
84018;DHT22;74097;51.992;5.890;2023-11-22T06:04:14;15.50;64.00
84018;DHT22;74097;51.992;5.890;2023-11-22T06:06:41;15.50;64.00
84018;DHT22;74097;51.992;5.890;2023-11-22T06:09:07;15.60;63.90
84018;DHT22;74097;51.992;5.890;2023-11-22T06:11:33;15.60;63.90
84018;DHT22;74097;51.992;5.890;2023-11-22T06:13:59;15.70;63.80
84018;DHT22;74097;51.992;5.890;2023-11-22T06:16:24;15.70;63.80
84018;DHT22;74097;51.992;5.890;2023-11-22T06:18:50;15.80;63.70
84018;DHT22;74097;51.992;5.890;2023-11-22T06:21:16;15.80;63.70
84018;DHT22;74097;51.992;5.890;2023-11-22T06:23:43;15.80;63.60
84018;DHT22;74097;51.992;5.890;2023-11-22T06:26:08;15.80;63.60
84018;DHT22;74097;51.992;5.890;2023-11-22T06:28:34;15.80;63.50
84018;DHT22;74097;51.992;5.890;2023-11-22T06:31:00;15.90;63.50
84018;DHT22;74097;51.992;5.890;2023-11-22T06:33:25;15.90;63.40
84018;DHT22;74097;51.992;5.890;2023-11-22T06:35:51;16.00;63.30
84018;DHT22;74097;51.992;5.890;2023-11-22T06:38:17;16.00;63.30
84018;DHT22;74097;51.992;5.890;2023-11-22T06:40:44;16.00;63.20
84018;DHT22;74097;51.992;5.890;2023-11-22T06:43:09;16.00;63.20
84018;DHT22;74097;51.992;5.890;2023-11-22T06:45:35;16.10;63.10
84018;DHT22;74097;51.992;5.890;2023-11-22T06:48:01;16.10;63.10
84018;DHT22;74097;51.992;5.890;2023-11-22T06:50:26;16.10;63.00
84018;DHT22;74097;51.992;5.890;2023-11-22T06:52:52;16.10;63.00
84018;DHT22;74097;51.992;5.890;2023-11-22T06:55:18;16.10;63.00
84018;DHT22;74097;51.992;5.890;2023-11-22T06:57:45;16.20;63.00
84018;DHT22;74097;51.992;5.890;2023-11-22T07:00:11;16.20;62.90
84018;DHT22;74097;51.992;5.890;2023-11-22T07:02:37;16.20;62.80
84018;DHT22;74097;51.992;5.890;2023-11-22T07:05:04;16.20;62.70
84018;DHT22;74097;51.992;5.890;2023-11-22T07:07:30;16.30;62.80
84018;DHT22;74097;51.992;5.890;2023-11-22T07:09:55;16.30;62.70
84018;DHT22;74097;51.992;5.890;2023-11-22T07:12:21;16.30;62.70
84018;DHT22;74097;51.992;5.890;2023-11-22T07:14:48;16.30;62.60
84018;DHT22;74097;51.992;5.890;2023-11-22T07:17:14;16.30;62.60
84018;DHT22;74097;51.992;5.890;2023-11-22T07:19:39;16.30;62.60
84018;DHT22;74097;51.992;5.890;2023-11-22T07:22:05;16.30;62.50
84018;DHT22;74097;51.992;5.890;2023-11-22T07:24:31;16.30;62.50
84018;DHT22;74097;51.992;5.890;2023-11-22T07:26:56;16.40;62.50
84018;DHT22;74097;51.992;5.890;2023-11-22T07:29:22;16.40;62.40
84018;DHT22;74097;51.992;5.890;2023-11-22T07:31:49;16.40;62.40
84018;DHT22;74097;51.992;5.890;2023-11-22T07:34:15;16.40;62.30
84018;DHT22;74097;51.992;5.890;2023-11-22T07:36:40;16.50;62.30
84018;DHT22;74097;51.992;5.890;2023-11-22T07:39:06;16.50;62.20
84018;DHT22;74097;51.992;5.890;2023-11-22T07:41:32;16.40;62.20
84018;DHT22;74097;51.992;5.890;2023-11-22T07:43:58;16.50;62.20
84018;DHT22;74097;51.992;5.890;2023-11-22T07:46:24;16.40;62.10
84018;DHT22;74097;51.992;5.890;2023-11-22T07:48:51;16.50;62.00
84018;DHT22;74097;51.992;5.890;2023-11-22T07:51:17;16.50;61.90
84018;DHT22;74097;51.992;5.890;2023-11-22T07:53:43;16.50;61.80
84018;DHT22;74097;51.992;5.890;2023-11-22T07:56:09;16.60;61.90
84018;DHT22;74097;51.992;5.890;2023-11-22T07:58:35;16.60;62.20
84018;DHT22;74097;51.992;5.890;2023-11-22T08:01:00;16.60;62.40
84018;DHT22;74097;51.992;5.890;2023-11-22T08:03:26;16.60;62.50
84018;DHT22;74097;51.992;5.890;2023-11-22T08:05:53;16.60;62.60
84018;DHT22;74097;51.992;5.890;2023-11-22T08:08:19;16.60;62.70
84018;DHT22;74097;51.992;5.890;2023-11-22T08:10:45;16.60;63.00
84018;DHT22;74097;51.992;5.890;2023-11-22T08:13:10;16.60;63.80
84018;DHT22;74097;51.992;5.890;2023-11-22T08:15:36;16.60;64.90
84018;DHT22;74097;51.992;5.890;2023-11-22T08:18:02;16.60;65.50
84018;DHT22;74097;51.992;5.890;2023-11-22T08:20:27;16.60;65.80
84018;DHT22;74097;51.992;5.890;2023-11-22T08:22:54;16.60;65.80
84018;DHT22;74097;51.992;5.890;2023-11-22T08:25:20;16.70;65.80
84018;DHT22;74097;51.992;5.890;2023-11-22T08:27:46;16.70;65.70
84018;DHT22;74097;51.992;5.890;2023-11-22T08:30:12;16.70;65.60
84018;DHT22;74097;51.992;5.890;2023-11-22T08:32:37;16.70;65.40
84018;DHT22;74097;51.992;5.890;2023-11-22T08:35:04;16.70;65.30
84018;DHT22;74097;51.992;5.890;2023-11-22T08:37:29;16.80;65.10
84018;DHT22;74097;51.992;5.890;2023-11-22T08:39:56;16.70;64.90
84018;DHT22;74097;51.992;5.890;2023-11-22T08:42:22;16.70;64.60
84018;DHT22;74097;51.992;5.890;2023-11-22T08:44:48;16.70;64.50
84018;DHT22;74097;51.992;5.890;2023-11-22T08:47:13;16.60;64.40
84018;DHT22;74097;51.992;5.890;2023-11-22T08:49:39;16.60;63.70
84018;DHT22;74097;51.992;5.890;2023-11-22T08:52:05;16.50;63.20
84018;DHT22;74097;51.992;5.890;2023-11-22T08:54:31;16.40;62.70
84018;DHT22;74097;51.992;5.890;2023-11-22T08:56:58;16.30;62.50
84018;DHT22;74097;51.992;5.890;2023-11-22T08:59:23;16.20;62.40
84018;DHT22;74097;51.992;5.890;2023-11-22T09:01:49;16.20;62.20
84018;DHT22;74097;51.992;5.890;2023-11-22T09:04:15;16.10;61.90
84018;DHT22;74097;51.992;5.890;2023-11-22T09:06:40;16.00;61.80
84018;DHT22;74097;51.992;5.890;2023-11-22T09:09:06;16.00;61.70
84018;DHT22;74097;51.992;5.890;2023-11-22T09:11:32;15.90;61.50
84018;DHT22;74097;51.992;5.890;2023-11-22T09:13:59;15.90;61.40
84018;DHT22;74097;51.992;5.890;2023-11-22T09:16:24;15.80;61.60
84018;DHT22;74097;51.992;5.890;2023-11-22T09:18:50;15.90;61.90
84018;DHT22;74097;51.992;5.890;2023-11-22T09:21:16;16.00;61.90
84018;DHT22;74097;51.992;5.890;2023-11-22T09:23:42;16.00;61.80
84018;DHT22;74097;51.992;5.890;2023-11-22T09:26:08;16.10;61.80
84018;DHT22;74097;51.992;5.890;2023-11-22T09:28:34;16.20;61.70
84018;DHT22;74097;51.992;5.890;2023-11-22T09:31:01;16.20;61.60
84018;DHT22;74097;51.992;5.890;2023-11-22T09:33:26;16.20;61.50
84018;DHT22;74097;51.992;5.890;2023-11-22T09:35:52;16.30;61.40
84018;DHT22;74097;51.992;5.890;2023-11-22T09:38:18;16.30;61.30
84018;DHT22;74097;51.992;5.890;2023-11-22T09:40:45;16.40;61.30
84018;DHT22;74097;51.992;5.890;2023-11-22T09:43:12;16.40;61.20
84018;DHT22;74097;51.992;5.890;2023-11-22T09:45:38;16.40;61.20
84018;DHT22;74097;51.992;5.890;2023-11-22T09:48:16;16.50;61.10
84018;DHT22;74097;51.992;5.890;2023-11-22T09:50:49;16.50;61.10
84018;DHT22;74097;51.992;5.890;2023-11-22T09:53:25;16.50;61.10
84018;DHT22;74097;51.992;5.890;2023-11-22T09:55:51;16.50;61.10
84018;DHT22;74097;51.992;5.890;2023-11-22T09:58:17;16.50;61.10
84018;DHT22;74097;51.992;5.890;2023-11-22T10:00:43;16.60;61.00
84018;DHT22;74097;51.992;5.890;2023-11-22T10:03:10;16.50;61.00
84018;DHT22;74097;51.992;5.890;2023-11-22T10:05:36;16.50;60.90
84018;DHT22;74097;51.992;5.890;2023-11-22T10:08:02;16.50;60.80
84018;DHT22;74097;51.992;5.890;2023-11-22T10:10:29;16.60;60.80
84018;DHT22;74097;51.992;5.890;2023-11-22T10:12:57;16.60;60.70
84018;DHT22;74097;51.992;5.890;2023-11-22T10:15:27;16.60;60.60
84018;DHT22;74097;51.992;5.890;2023-11-22T10:17:55;16.60;60.60
84018;DHT22;74097;51.992;5.890;2023-11-22T10:20:22;16.60;60.60
84018;DHT22;74097;51.992;5.890;2023-11-22T10:22:48;16.50;60.60
84018;DHT22;74097;51.992;5.890;2023-11-22T10:25:15;16.50;60.50
84018;DHT22;74097;51.992;5.890;2023-11-22T10:27:41;16.50;60.50
84018;DHT22;74097;51.992;5.890;2023-11-22T10:30:08;16.50;60.50
84018;DHT22;74097;51.992;5.890;2023-11-22T10:32:34;16.50;60.40
84018;DHT22;74097;51.992;5.890;2023-11-22T10:34:59;16.50;60.40
84018;DHT22;74097;51.992;5.890;2023-11-22T10:37:26;16.50;60.40
84018;DHT22;74097;51.992;5.890;2023-11-22T10:39:52;16.50;60.40
84018;DHT22;74097;51.992;5.890;2023-11-22T10:42:19;16.50;60.40
84018;DHT22;74097;51.992;5.890;2023-11-22T10:44:46;16.50;60.30
84018;DHT22;74097;51.992;5.890;2023-11-22T10:47:15;16.50;60.30
84018;DHT22;74097;51.992;5.890;2023-11-22T10:49:40;16.50;60.30
84018;DHT22;74097;51.992;5.890;2023-11-22T10:52:08;16.50;60.20
84018;DHT22;74097;51.992;5.890;2023-11-22T10:54:44;16.50;60.20
84018;DHT22;74097;51.992;5.890;2023-11-22T10:57:12;16.60;60.10
84018;DHT22;74097;51.992;5.890;2023-11-22T10:59:40;16.60;60.10
84018;DHT22;74097;51.992;5.890;2023-11-22T11:02:12;16.60;60.10
84018;DHT22;74097;51.992;5.890;2023-11-22T11:04:47;16.60;60.10
84018;DHT22;74097;51.992;5.890;2023-11-22T11:07:15;16.50;60.10
84018;DHT22;74097;51.992;5.890;2023-11-22T11:09:45;16.60;60.10
84018;DHT22;74097;51.992;5.890;2023-11-22T11:12:12;16.60;60.10
84018;DHT22;74097;51.992;5.890;2023-11-22T11:14:38;16.60;60.20
84018;DHT22;74097;51.992;5.890;2023-11-22T11:17:05;16.60;60.20
84018;DHT22;74097;51.992;5.890;2023-11-22T11:19:32;16.60;60.20
84018;DHT22;74097;51.992;5.890;2023-11-22T11:21:59;16.60;60.20
84018;DHT22;74097;51.992;5.890;2023-11-22T11:24:25;16.60;60.20
84018;DHT22;74097;51.992;5.890;2023-11-22T11:26:52;16.60;60.20
84018;DHT22;74097;51.992;5.890;2023-11-22T11:29:30;16.60;60.30
84018;DHT22;74097;51.992;5.890;2023-11-22T11:31:56;16.60;60.30
84018;DHT22;74097;51.992;5.890;2023-11-22T11:34:23;16.60;60.20
84018;DHT22;74097;51.992;5.890;2023-11-22T11:36:53;16.60;60.20
84018;DHT22;74097;51.992;5.890;2023-11-22T11:39:24;16.60;60.20
84018;DHT22;74097;51.992;5.890;2023-11-22T11:41:52;16.60;60.20
84018;DHT22;74097;51.992;5.890;2023-11-22T11:44:18;16.70;60.20
84018;DHT22;74097;51.992;5.890;2023-11-22T11:46:44;16.60;60.20
84018;DHT22;74097;51.992;5.890;2023-11-22T11:49:12;16.60;60.20
84018;DHT22;74097;51.992;5.890;2023-11-22T11:51:38;16.60;60.20
84018;DHT22;74097;51.992;5.890;2023-11-22T11:54:04;16.60;60.20
84018;DHT22;74097;51.992;5.890;2023-11-22T11:56:29;16.70;60.20
84018;DHT22;74097;51.992;5.890;2023-11-22T11:58:57;16.70;60.20
84018;DHT22;74097;51.992;5.890;2023-11-22T12:01:23;16.60;60.20
84018;DHT22;74097;51.992;5.890;2023-11-22T12:03:49;16.60;60.20
84018;DHT22;74097;51.992;5.890;2023-11-22T12:06:15;16.60;60.20
84018;DHT22;74097;51.992;5.890;2023-11-22T12:08:41;16.60;60.20
84018;DHT22;74097;51.992;5.890;2023-11-22T12:11:06;16.60;60.20
84018;DHT22;74097;51.992;5.890;2023-11-22T12:13:32;16.60;60.20
84018;DHT22;74097;51.992;5.890;2023-11-22T12:16:00;16.60;60.20
84018;DHT22;74097;51.992;5.890;2023-11-22T12:18:26;16.60;60.20
84018;DHT22;74097;51.992;5.890;2023-11-22T12:20:55;16.60;60.20
84018;DHT22;74097;51.992;5.890;2023-11-22T12:23:21;16.60;60.20
84018;DHT22;74097;51.992;5.890;2023-11-22T12:25:47;16.60;60.20
84018;DHT22;74097;51.992;5.890;2023-11-22T12:28:13;16.70;60.20
84018;DHT22;74097;51.992;5.890;2023-11-22T12:30:38;16.70;60.20
84018;DHT22;74097;51.992;5.890;2023-11-22T12:33:06;16.70;60.10
84018;DHT22;74097;51.992;5.890;2023-11-22T12:35:33;16.60;60.10
84018;DHT22;74097;51.992;5.890;2023-11-22T12:38:00;16.70;60.10
84018;DHT22;74097;51.992;5.890;2023-11-22T12:40:27;16.70;60.10
84018;DHT22;74097;51.992;5.890;2023-11-22T12:42:55;16.70;59.90
84018;DHT22;74097;51.992;5.890;2023-11-22T12:45:22;16.70;60.00
84018;DHT22;74097;51.992;5.890;2023-11-22T12:47:48;16.70;60.00
84018;DHT22;74097;51.992;5.890;2023-11-22T12:50:30;16.70;59.90
84018;DHT22;74097;51.992;5.890;2023-11-22T12:52:55;16.60;59.90
84018;DHT22;74097;51.992;5.890;2023-11-22T12:55:21;16.60;59.90
84018;DHT22;74097;51.992;5.890;2023-11-22T12:57:56;16.60;59.90
84018;DHT22;74097;51.992;5.890;2023-11-22T13:00:22;16.60;59.80
84018;DHT22;74097;51.992;5.890;2023-11-22T13:02:47;16.60;59.80
84018;DHT22;74097;51.992;5.890;2023-11-22T13:05:13;16.60;59.80
84018;DHT22;74097;51.992;5.890;2023-11-22T13:07:40;16.60;59.80
84018;DHT22;74097;51.992;5.890;2023-11-22T13:10:06;16.60;59.80
84018;DHT22;74097;51.992;5.890;2023-11-22T13:12:32;16.70;59.60
84018;DHT22;74097;51.992;5.890;2023-11-22T13:14:58;16.60;59.60
84018;DHT22;74097;51.992;5.890;2023-11-22T13:17:23;16.60;59.60
84018;DHT22;74097;51.992;5.890;2023-11-22T13:19:49;16.60;59.70
84018;DHT22;74097;51.992;5.890;2023-11-22T13:22:15;16.60;59.60
84018;DHT22;74097;51.992;5.890;2023-11-22T13:24:42;16.50;59.40
84018;DHT22;74097;51.992;5.890;2023-11-22T13:27:09;16.50;59.50
84018;DHT22;74097;51.992;5.890;2023-11-22T13:29:35;16.50;59.40
84018;DHT22;74097;51.992;5.890;2023-11-22T13:32:00;16.50;59.40
84018;DHT22;74097;51.992;5.890;2023-11-22T13:34:26;16.50;59.50
84018;DHT22;74097;51.992;5.890;2023-11-22T13:36:52;16.40;59.50
84018;DHT22;74097;51.992;5.890;2023-11-22T13:39:17;16.40;59.60
84018;DHT22;74097;51.992;5.890;2023-11-22T13:41:44;16.30;59.70
84018;DHT22;74097;51.992;5.890;2023-11-22T13:44:10;16.30;59.70
84018;DHT22;74097;51.992;5.890;2023-11-22T13:46:36;16.30;59.80
84018;DHT22;74097;51.992;5.890;2023-11-22T13:49:01;16.30;59.80
84018;DHT22;74097;51.992;5.890;2023-11-22T13:51:27;16.20;59.80
84018;DHT22;74097;51.992;5.890;2023-11-22T13:53:53;16.30;59.90
84018;DHT22;74097;51.992;5.890;2023-11-22T13:56:18;16.20;59.80
84018;DHT22;74097;51.992;5.890;2023-11-22T13:58:45;16.20;59.90
84018;DHT22;74097;51.992;5.890;2023-11-22T14:01:11;16.10;59.90
84018;DHT22;74097;51.992;5.890;2023-11-22T14:03:37;16.10;60.00
84018;DHT22;74097;51.992;5.890;2023-11-22T14:06:02;16.10;60.00
84018;DHT22;74097;51.992;5.890;2023-11-22T14:08:28;16.10;60.00
84018;DHT22;74097;51.992;5.890;2023-11-22T14:10:54;16.10;60.10
84018;DHT22;74097;51.992;5.890;2023-11-22T14:13:19;16.00;60.10
84018;DHT22;74097;51.992;5.890;2023-11-22T14:15:46;16.10;60.10
84018;DHT22;74097;51.992;5.890;2023-11-22T14:18:12;16.00;60.10
84018;DHT22;74097;51.992;5.890;2023-11-22T14:20:38;16.10;60.00
84018;DHT22;74097;51.992;5.890;2023-11-22T14:23:03;16.00;60.10
84018;DHT22;74097;51.992;5.890;2023-11-22T14:25:29;16.00;60.20
84018;DHT22;74097;51.992;5.890;2023-11-22T14:27:55;16.00;60.20
84018;DHT22;74097;51.992;5.890;2023-11-22T14:30:21;16.00;60.20
84018;DHT22;74097;51.992;5.890;2023-11-22T14:32:48;16.00;60.30
84018;DHT22;74097;51.992;5.890;2023-11-22T14:35:13;15.90;60.30
84018;DHT22;74097;51.992;5.890;2023-11-22T14:37:39;15.90;60.30
84018;DHT22;74097;51.992;5.890;2023-11-22T14:40:06;15.90;60.30
84018;DHT22;74097;51.992;5.890;2023-11-22T14:42:31;15.90;60.30
84018;DHT22;74097;51.992;5.890;2023-11-22T14:44:57;15.90;60.30
84018;DHT22;74097;51.992;5.890;2023-11-22T14:47:23;15.90;60.40
84018;DHT22;74097;51.992;5.890;2023-11-22T14:49:50;15.90;60.50
84018;DHT22;74097;51.992;5.890;2023-11-22T14:52:16;15.80;60.50
84018;DHT22;74097;51.992;5.890;2023-11-22T14:54:41;15.90;60.50
84018;DHT22;74097;51.992;5.890;2023-11-22T14:57:07;15.90;60.50
84018;DHT22;74097;51.992;5.890;2023-11-22T14:59:33;15.80;60.50
84018;DHT22;74097;51.992;5.890;2023-11-22T15:01:58;15.90;60.50
84018;DHT22;74097;51.992;5.890;2023-11-22T15:04:24;15.90;60.60
84018;DHT22;74097;51.992;5.890;2023-11-22T15:06:51;15.90;60.50
84018;DHT22;74097;51.992;5.890;2023-11-22T15:09:17;15.90;60.60
84018;DHT22;74097;51.992;5.890;2023-11-22T15:11:42;15.80;60.60
84018;DHT22;74097;51.992;5.890;2023-11-22T15:14:08;15.90;60.60
84018;DHT22;74097;51.992;5.890;2023-11-22T15:16:34;15.90;60.60
84018;DHT22;74097;51.992;5.890;2023-11-22T15:18:59;15.80;60.60
84018;DHT22;74097;51.992;5.890;2023-11-22T15:21:25;15.90;60.60
84018;DHT22;74097;51.992;5.890;2023-11-22T15:23:52;15.90;60.60